Nearby METAR Reports

 

K27K - Georgetown, Kentucky, USA
Distance from station: NE 1mi, 3km
Updated: Sun, 05-Apr-2020 9:35pm EDT
Clear
Clear
 Wind from N
Wind: N 7 mph , 11 km/h
Temperature: 54°F , 12°C
Dew Point: 48°F , 9°C
Humidity: 82%
Barometer: 30.09 inHg , 1019 hPa
Clouds: Clear
Visibility: 10 miles , 16 km
2020/04/06 01:35 K27K 060135Z AUTO 36006KT 10SM CLR 12/09 A3009 RMK AO1
KLEX - Lexington, Kentucky, USA
Distance from station: SE 25mi, 38km
Updated: Sun, 05-Apr-2020 8:54pm EDT
Clear
Clear
 Wind from N
Wind: N 9 mph , 15 km/h
Temperature: 57°F , 14°C
Dew Point: 52°F , 11°C
Humidity: 82%
Barometer: 30.08 inHg , 1018.6 hPa
Clouds: Clear
Visibility: 10 miles , 16 km
2020/04/06 00:54 KLEX 060054Z 36008KT 10SM CLR 14/11 A3008 RMK AO2 SLP185 T01440106
 
KFFT - Frankfort, Kentucky, USA
Distance from station: WNW 24mi, 38km
Updated: Sun, 05-Apr-2020 8:53pm EDT
Clear
Clear
 Wind from N
Wind: N 9 mph , 15 km/h
Temperature: 61°F , 16°C
Dew Point: 48°F , 9°C
Humidity: 63%
Barometer: 30.08 inHg , 1018.6 hPa
Clouds: Clear
Visibility: 10 miles , 16 km
2020/04/06 00:53 KFFT 060053Z AUTO 36008KT 10SM CLR 16/09 A3008 RMK AO2 SLP184 T01560094
KIOB - Mount Sterling, Kentucky, USA
Distance from station: E 28mi, 46km
Updated: Sun, 05-Apr-2020 9:15pm EDT
Clear
Clear
 Wind from NE
Wind: NE 6 mph , 9 km/h
Temperature: 59°F , 15°C
Dew Point: 52°F , 11°C
Humidity: 77%
Barometer: 30.10 inHg , 1019.3 hPa
Clouds: Clear
Visibility: 10 miles , 16 km
2020/04/06 01:15 KIOB 060115Z AUTO 04005KT 10SM CLR 15/11 A3010 RMK AO2 PWINO
 
KDVK - Danville, Kentucky, USA
Distance from station: SSW 35mi, 56km
Updated: Sun, 05-Apr-2020 8:55pm EDT
Clear
Clear
 Wind from N
Wind: N 5 mph , 7 km/h
Temperature: 59°F , 15°C
Dew Point: 52°F , 11°C
Humidity: 77%
Barometer: 30.08 inHg , 1018.6 hPa
Clouds: Clear
Visibility: 10 miles , 16 km
2020/04/06 00:55 KDVK 060055Z AUTO 36004KT 10SM CLR 15/11 A3008 RMK AO2
K6I2 - Springfield, Kentucky, USA
Distance from station: SW 49mi, 80km
Updated: Sun, 05-Apr-2020 9:10pm EDT
Clear
Clear
 Wind from N
Wind: N 7 mph , 11 km/h
Temperature: 59°F , 15°C
Dew Point: 54°F , 12°C
Humidity: 82%
Barometer: 30.08 inHg , 1018.6 hPa
Clouds: Clear
Visibility: 10 miles , 16 km
2020/04/06 01:10 K6I2 060110Z AUTO 35006KT 10SM CLR 15/12 A3008 RMK AO2
 
KSYM - Morehead, Kentucky, USA
Distance from station: ENE 51mi, 83km
Updated: Sun, 05-Apr-2020 9:20pm EDT
Partly cloudy
Partly cloudy
 Wind from N
Wind: N 10 mph , 17 km/h
Temperature: 59°F , 15°C
Dew Point: 50°F , 10°C
Humidity: 72%
Barometer: 30.10 inHg , 1019.3 hPa
Clouds: Partly cloudy
Visibility: 10 miles , 16 km
Cloud details: Partly cloudy 12000 ft
2020/04/06 01:20 KSYM 060120Z AUTO 35009KT 10SM SCT120 15/10 A3010 RMK AO2
KFGX - Flemingsburg, Kentucky, USA
Distance from station: NE 54mi, 87km
Updated: Sun, 05-Apr-2020 8:55pm EDT
Clear
Clear
 Wind from N
Wind: N 5 mph , 7 km/h
Temperature: 57°F , 14°C
Dew Point: 50°F , 10°C
Humidity: 77%
Barometer: 30.10 inHg , 1019.3 hPa
Clouds: Clear
Visibility: 10 miles , 16 km
2020/04/06 00:55 KFGX 060055Z AUTO 01004KT 10SM CLR 14/10 A3010 RMK AO2 T01350100
 
KLOU - Louisville/Bowmn, Kentucky, USA
Distance from station: W 64mi, 104km
Updated: Sun, 05-Apr-2020 8:53pm EDT
Mostly cloudy
Mostly cloudy
 Wind from N
Wind: N 6 mph , 9 km/h
Temperature: 61°F , 16°C
Dew Point: 48°F , 9°C
Humidity: 63%
Barometer: 30.09 inHg , 1019 hPa
Clouds: Mostly cloudy
Visibility: 10 miles , 16 km
Cloud details: Mostly cloudy 7000 ft
2020/04/06 00:53 KLOU 060053Z 36005KT 10SM BKN070 16/09 A3009 RMK AO2 SLP188 T01560089
KSDF - Louisville, Kentucky, USA
Distance from station: W 68mi, 109km
Updated: Sun, 05-Apr-2020 8:56pm EDT
Mostly cloudy
Mostly cloudy
 Wind from N
Wind: N 9 mph , 15 km/h
Temperature: 61°F , 16°C
Dew Point: 50°F , 10°C
Humidity: 68%
Barometer: 30.09 inHg , 1019 hPa
Clouds: Mostly cloudy
Visibility: 10 miles , 16 km
Cloud details: Mostly cloudy 7000 ft
Mostly cloudy 15000 ft
2020/04/06 00:56 KSDF 060056Z 36008KT 10SM BKN070 BKN150 16/10 A3009 RMK AO2 SLP189 T01610100
 
KSME - Somerset, Kentucky, USA
Distance from station: S 69mi, 111km
Updated: Sun, 05-Apr-2020 9:15pm EDT
Clear
Clear
 Wind from WSW
Wind: WSW 3 mph , 6 km/h
Temperature: 64°F , 18°C
Dew Point: 46°F , 8°C
Humidity: 52%
Barometer: 30.07 inHg , 1018.3 hPa
Clouds: Clear
Visibility: 10 miles , 16 km
2020/04/06 01:15 KSME 060115Z AUTO 24003KT 10SM CLR 18/08 A3007 RMK AO2
KCVG - Covington, Kentucky, USA
Distance from station: N 70mi, 113km
Updated: Sun, 05-Apr-2020 8:52pm EDT
Overcast
Overcast
 Wind from N
Wind: N 8 mph , 13 km/h
Temperature: 54°F , 12°C
Dew Point: 46°F , 8°C
Humidity: 77%
Barometer: 30.10 inHg , 1019.3 hPa
Clouds: Overcast
Visibility: 10 miles , 16 km
Cloud details: Overcast 2300 ft
2020/04/06 00:52 KCVG 060052Z 01007KT 10SM OVC023 12/08 A3010 RMK AO2 SLP193 T01220078
 
KLOZ - London, Kentucky, USA
Distance from station: SSE 70mi, 113km
Updated: Sun, 05-Apr-2020 8:53pm EDT
Clear
Clear
 Wind from NNW
Wind: NNW 7 mph , 11 km/h
Temperature: 66°F , 19°C
Dew Point: 52°F , 11°C
Humidity: 60%
Barometer: 30.05 inHg , 1017.6 hPa
Clouds: Clear
Visibility: 10 miles , 16 km
2020/04/06 00:53 KLOZ 060053Z AUTO 34006KT 10SM CLR 19/11 A3005 RMK AO2 SLP168 T01890106
KJKL - Noctor/Jackson, Kentucky, USA
Distance from station: ESE 72mi, 115km
Updated: Sun, 05-Apr-2020 8:53pm EDT
Clear
Clear
 Wind from varies
Wind: varies 6 mph , 9 km/h
Temperature: 66°F , 19°C
Dew Point: 50°F , 10°C
Humidity: 56%
Barometer: 30.06 inHg , 1017.9 hPa
Clouds: Clear
Visibility: 10 miles , 16 km
2020/04/06 00:53 KJKL 060053Z AUTO VRB05KT 10SM CLR 19/10 A3006 RMK AO2 SLP172 T01890100
 
KIMS - Madison, Indiana, USA
Distance from station: NW 72mi, 116km
Updated: Sun, 05-Apr-2020 9:15pm EDT
Overcast
Overcast
 Wind from calm
Wind: Calm
Temperature: 54°F , 12°C
Dew Point: 50°F , 10°C
Humidity: 88%
Barometer: 30.12 inHg , 1020 hPa
Clouds: Overcast
Visibility: 10 miles , 16 km
Cloud details: Mostly cloudy 6000 ft
Overcast 8000 ft
2020/04/06 01:15 KIMS 060115Z AUTO 00000KT 10SM BKN060 OVC080 12/10 A3012 RMK AO1
KLUK - Cincinnat/Lunken, Ohio, USA
Distance from station: N 73mi, 118km
Updated: Sun, 05-Apr-2020 8:53pm EDT
Overcast
Overcast
 Wind from N
Wind: N 7 mph , 11 km/h
Temperature: 55°F , 13°C
Dew Point: 48°F , 9°C
Humidity: 77%
Barometer: 30.12 inHg , 1020 hPa
Clouds: Overcast
Visibility: 10 miles , 16 km
Cloud details: Overcast 3100 ft
2020/04/06 00:53 KLUK 060053Z 01006KT 10SM OVC031 13/09 A3012 RMK AO2 SLP199 T01280089
 
KI69 - Batavia, Ohio, USA
Distance from station: NNE 74mi, 119km
Updated: Sun, 05-Apr-2020 9:15pm EDT
Overcast
Overcast
 Wind from NE
Wind: NE 6 mph , 9 km/h
Temperature: 54°F , 12°C
Dew Point: 48°F , 9°C
Humidity: 82%
Barometer: 30.12 inHg , 1020 hPa
Clouds: Overcast
Visibility: 10 miles , 16 km
Cloud details: Overcast 1300 ft
2020/04/06 01:15 KI69 060115Z AUTO 05005KT 10SM OVC013 12/09 A3012 RMK AO2 T01150093